createdAt,value
2022-08-19T00:01:52.908Z,8.02
2022-08-19T00:04:28.379Z,3.25
2022-08-19T00:06:55.075Z,2.97
2022-08-19T00:09:22.897Z,8.15
2022-08-19T00:11:50.294Z,3.78
2022-08-19T00:14:21.891Z,3.63
2022-08-19T00:16:49.567Z,4.05
2022-08-19T00:19:16.351Z,5.45
2022-08-19T00:21:43.182Z,5.43
2022-08-19T00:24:14.468Z,3.03
2022-08-19T00:26:41.891Z,5.28
2022-08-19T00:29:10.713Z,4.40
2022-08-19T00:31:37.863Z,3.97
2022-08-19T00:34:05.127Z,3.67
2022-08-19T00:36:33.523Z,6.45
2022-08-19T00:39:00.648Z,5.35
2022-08-19T00:41:27.733Z,5.75
2022-08-19T00:44:10.318Z,6.28
2022-08-19T00:46:39.158Z,7.68
2022-08-19T00:49:16.133Z,7.30
2022-08-19T00:51:44.179Z,7.28
2022-08-19T00:54:10.757Z,6.45
2022-08-19T00:56:37.866Z,6.40
2022-08-19T00:59:10.068Z,5.55
2022-08-19T01:01:41.103Z,4.60
2022-08-19T01:04:07.861Z,6.38
2022-08-19T01:07:19.591Z,4.53
2022-08-19T01:09:51.186Z,4.35
2022-08-19T01:12:20.404Z,5.15
2022-08-19T01:15:01.828Z,6.10
2022-08-19T01:17:28.721Z,5.90
2022-08-19T01:19:59.896Z,5.85
2022-08-19T01:22:42.705Z,4.72
2022-08-19T01:25:15.093Z,4.97
2022-08-19T01:28:03.037Z,5.40
2022-08-19T01:30:44.464Z,3.88
2022-08-19T01:33:20.416Z,5.88
2022-08-19T01:35:53.415Z,6.38
2022-08-19T01:38:32.520Z,9.07
2022-08-19T01:40:59.566Z,7.97
2022-08-19T01:43:32.003Z,4.45
2022-08-19T01:46:13.521Z,6.35
2022-08-19T01:48:56.759Z,3.85
2022-08-19T01:51:25.493Z,6.40
2022-08-19T01:53:57.395Z,5.78
2022-08-19T01:56:26.913Z,8.25
2022-08-19T01:59:02.337Z,5.95
2022-08-19T02:01:32.762Z,9.70
2022-08-19T02:04:05.185Z,3.85
2022-08-19T02:06:32.901Z,5.53
2022-08-19T02:09:07.924Z,3.78
2022-08-19T02:11:37.046Z,6.38
2022-08-19T02:14:28.024Z,7.30
2022-08-19T02:16:59.614Z,6.18
2022-08-19T02:19:39.492Z,4.80
2022-08-19T02:22:07.809Z,8.18
2022-08-19T02:24:37.349Z,5.85
2022-08-19T02:27:05.835Z,4.03
2022-08-19T02:29:33.501Z,6.15
2022-08-19T02:32:13.759Z,7.60
2022-08-19T02:34:50.194Z,3.38
2022-08-19T02:37:37.774Z,4.38
2022-08-19T02:40:12.359Z,5.57
2022-08-19T02:42:44.860Z,5.53
2022-08-19T02:45:13.963Z,6.20
2022-08-19T02:47:45.092Z,6.80
2022-08-19T02:50:11.632Z,4.80
2022-08-19T02:52:40.615Z,5.63
2022-08-19T02:55:12.849Z,4.13
2022-08-19T02:57:41.234Z,7.72
2022-08-19T03:00:13.527Z,6.25
2022-08-19T03:02:59.684Z,5.97
2022-08-19T03:05:56.167Z,9.40
2022-08-19T03:08:15.676Z,8.27
2022-08-19T03:10:56.875Z,7.03
2022-08-19T03:13:25.407Z,5.85
2022-08-19T03:15:57.623Z,5.32
2022-08-19T03:20:58.216Z,4.13
2022-08-19T03:23:29.370Z,6.47
2022-08-19T03:26:15.559Z,6.13
2022-08-19T03:28:58.335Z,5.35
2022-08-19T03:31:41.600Z,8.63
2022-08-19T03:34:23.462Z,6.65
2022-08-19T03:39:22.198Z,6.88
2022-08-19T03:42:32.588Z,5.07
2022-08-19T03:47:17.680Z,4.68
2022-08-19T03:49:47.309Z,3.70
2022-08-19T03:52:19.853Z,2.45
2022-08-19T03:54:55.472Z,3.20
2022-08-19T03:57:32.033Z,4.78
2022-08-19T04:00:13.189Z,6.05
2022-08-19T04:02:58.299Z,5.82
2022-08-19T04:05:30.923Z,4.72
2022-08-19T04:08:14.161Z,4.05
2022-08-19T04:10:44.868Z,7.43
2022-08-19T04:13:17.737Z,4.80
2022-08-19T04:15:55.174Z,6.53
2022-08-19T04:18:26.448Z,7.07
2022-08-19T04:21:00.609Z,4.40
2022-08-19T04:23:31.529Z,4.15
2022-08-19T04:26:01.692Z,8.20
2022-08-19T04:28:33.856Z,8.43
2022-08-19T04:31:01.577Z,8.32
2022-08-19T04:33:32.199Z,7.78
2022-08-19T04:36:00.633Z,12.20
2022-08-19T04:38:29.779Z,7.97
2022-08-19T04:41:17.009Z,8.10
2022-08-19T04:43:51.392Z,7.55
2022-08-19T04:46:40.103Z,9.18
2022-08-19T04:49:14.117Z,11.05
2022-08-19T04:52:06.783Z,12.85
2022-08-19T04:57:09.948Z,11.48
2022-08-19T04:59:39.895Z,9.05
2022-08-19T05:02:12.329Z,12.70
2022-08-19T05:04:40.412Z,11.68
2022-08-19T05:07:09.378Z,6.55
2022-08-19T05:09:58.345Z,8.73
2022-08-19T05:12:31.220Z,6.45
2022-08-19T05:15:04.934Z,6.13
2022-08-19T05:17:38.387Z,7.20
2022-08-19T05:20:27.566Z,6.75
2022-08-19T05:22:54.545Z,6.95
2022-08-19T05:25:26.936Z,7.47
2022-08-19T05:30:51.653Z,7.85
2022-08-19T05:33:20.469Z,7.97
2022-08-19T05:35:56.837Z,6.35
2022-08-19T05:38:23.413Z,8.50
2022-08-19T05:40:50.295Z,5.13
2022-08-19T05:43:19.328Z,6.82
2022-08-19T05:45:48.237Z,4.88
2022-08-19T05:48:15.097Z,5.68
2022-08-19T05:50:48.656Z,10.02
2022-08-19T05:53:19.306Z,7.00
2022-08-19T05:55:48.913Z,8.77
2022-08-19T05:58:17.365Z,8.13
2022-08-19T06:00:50.596Z,7.90
2022-08-19T06:03:18.925Z,9.02
2022-08-19T06:05:51.743Z,7.47
2022-08-19T06:08:19.728Z,4.93
2022-08-19T06:10:52.699Z,6.30
2022-08-19T06:13:22.151Z,6.43
2022-08-19T06:15:50.921Z,8.30
2022-08-19T06:18:17.693Z,7.07
2022-08-19T06:20:56.500Z,10.77
2022-08-19T06:23:27.954Z,5.95
2022-08-19T06:25:56.821Z,6.13
2022-08-19T06:28:24.648Z,7.85
2022-08-19T06:30:54.132Z,7.70
2022-08-19T06:33:24.799Z,8.80
2022-08-19T06:35:51.519Z,8.82
2022-08-19T06:38:23.447Z,9.05
2022-08-19T06:40:49.897Z,10.02
2022-08-19T06:43:28.090Z,8.02
2022-08-19T06:46:04.925Z,8.18
2022-08-19T06:48:45.075Z,9.23
2022-08-19T06:51:23.511Z,7.72
2022-08-19T06:53:56.473Z,8.88
2022-08-19T06:56:40.172Z,9.90
2022-08-19T06:59:17.888Z,8.07
2022-08-19T07:01:54.033Z,9.10
2022-08-19T07:04:27.630Z,7.97
2022-08-19T07:07:20.000Z,14.20
2022-08-19T07:09:57.926Z,11.80
2022-08-19T07:12:28.094Z,12.30
2022-08-19T07:14:59.987Z,13.00
2022-08-19T07:17:29.093Z,14.70
2022-08-19T07:19:58.592Z,12.93
2022-08-19T07:22:34.802Z,11.15
2022-08-19T07:25:32.128Z,14.23
2022-08-19T07:28:01.813Z,12.27
2022-08-19T07:30:28.525Z,14.43
2022-08-19T07:32:55.502Z,16.20
2022-08-19T07:35:24.984Z,12.05
2022-08-19T07:37:51.521Z,10.32
2022-08-19T07:40:25.380Z,12.40
2022-08-19T07:42:57.770Z,10.30
2022-08-19T07:45:41.715Z,10.25
2022-08-19T07:48:11.416Z,14.57
2022-08-19T07:50:39.345Z,17.85
2022-08-19T07:53:07.935Z,13.63
2022-08-19T07:55:40.448Z,13.38
2022-08-19T07:58:12.146Z,15.77
2022-08-19T08:00:39.812Z,17.05
2022-08-19T08:03:13.662Z,15.65
2022-08-19T08:05:58.601Z,21.17
2022-08-19T08:08:48.888Z,14.38
2022-08-19T08:11:24.348Z,14.57
2022-08-19T08:14:01.287Z,17.35
2022-08-19T08:16:32.929Z,15.25
2022-08-19T08:19:03.176Z,15.43
2022-08-19T08:21:36.248Z,16.45
2022-08-19T08:24:02.966Z,18.27
2022-08-19T08:26:31.847Z,11.35
2022-08-19T08:29:12.310Z,9.30
2022-08-19T08:31:41.652Z,10.70
2022-08-19T08:34:08.815Z,15.85
2022-08-19T08:36:45.443Z,12.65
2022-08-19T08:39:16.532Z,10.13
2022-08-19T08:41:48.104Z,10.70
2022-08-19T08:44:27.170Z,10.82
2022-08-19T08:47:01.437Z,6.38
2022-08-19T08:49:51.310Z,9.20
2022-08-19T08:52:31.994Z,7.72
2022-08-19T08:55:02.330Z,6.60
2022-08-19T08:57:37.074Z,8.48
2022-08-19T09:02:41.672Z,8.02
2022-08-19T09:05:16.613Z,7.50
2022-08-19T09:08:06.049Z,5.95
2022-08-19T09:10:55.483Z,4.85
2022-08-19T09:13:37.880Z,8.50
2022-08-19T09:16:11.693Z,6.07
2022-08-19T09:18:56.107Z,4.38
2022-08-19T09:21:33.165Z,6.50
2022-08-19T09:24:05.710Z,10.15
2022-08-19T09:26:48.202Z,7.25
2022-08-19T09:29:19.862Z,9.25
2022-08-19T09:31:49.216Z,9.52
2022-08-19T09:34:21.138Z,15.25
2022-08-19T09:36:57.342Z,11.80
2022-08-19T09:39:27.109Z,7.90
2022-08-19T09:42:04.518Z,11.35
2022-08-19T09:44:32.196Z,11.75
2022-08-19T09:47:01.609Z,7.93
2022-08-19T09:49:28.075Z,5.25
2022-08-19T09:51:56.990Z,6.97
2022-08-19T09:54:25.859Z,9.23
2022-08-19T09:56:58.450Z,4.93
2022-08-19T09:59:25.051Z,6.43
2022-08-19T10:01:52.497Z,5.45
2022-08-19T10:04:22.170Z,8.65
2022-08-19T10:06:51.850Z,6.60
2022-08-19T10:09:33.759Z,7.47
2022-08-19T10:12:04.852Z,6.70
2022-08-19T10:14:34.294Z,6.13
2022-08-19T10:17:19.342Z,6.55
2022-08-19T10:19:55.051Z,6.22
2022-08-19T10:22:22.396Z,5.90
2022-08-19T10:24:55.661Z,7.50
2022-08-19T10:27:22.327Z,7.03
2022-08-19T10:29:50.095Z,7.15
2022-08-19T10:32:16.603Z,4.80
2022-08-19T10:34:48.106Z,6.53
2022-08-19T10:37:15.043Z,6.32
2022-08-19T10:39:48.762Z,9.45
2022-08-19T10:42:17.115Z,8.02
2022-08-19T10:44:43.955Z,6.22
2022-08-19T10:47:17.677Z,9.43
2022-08-19T10:50:12.372Z,7.68
2022-08-19T10:52:49.939Z,5.45
2022-08-19T10:55:38.143Z,5.53
2022-08-19T10:58:06.914Z,6.75
2022-08-19T11:00:37.721Z,7.43
2022-08-19T11:03:09.592Z,8.32
2022-08-19T11:05:40.407Z,5.20
2022-08-19T11:08:22.946Z,8.75
2022-08-19T11:11:03.958Z,5.72
2022-08-19T11:13:38.189Z,9.00
2022-08-19T11:16:09.861Z,8.43
2022-08-19T11:18:46.055Z,8.02
2022-08-19T11:21:24.916Z,7.78
2022-08-19T11:23:58.526Z,8.48
2022-08-19T11:26:27.408Z,9.50
2022-08-19T11:28:56.455Z,5.95
2022-08-19T11:31:33.916Z,11.35
2022-08-19T11:34:06.115Z,8.45
2022-08-19T11:36:41.262Z,7.43
2022-08-19T11:39:14.377Z,7.70
2022-08-19T11:41:41.467Z,8.57
2022-08-19T11:44:10.541Z,8.85
2022-08-19T11:46:40.194Z,7.55
2022-08-19T11:49:13.244Z,8.15
2022-08-19T11:51:42.981Z,5.40
2022-08-19T11:54:12.340Z,7.95
2022-08-19T11:56:42.736Z,7.30
2022-08-19T11:59:14.779Z,6.72
2022-08-19T12:01:43.469Z,7.10
2022-08-19T12:04:12.618Z,9.27
2022-08-19T12:06:42.717Z,8.10
2022-08-19T12:09:10.936Z,8.68
2022-08-19T12:11:39.265Z,6.75
2022-08-19T12:14:14.547Z,6.13
2022-08-19T12:16:49.144Z,6.47
2022-08-19T12:19:21.791Z,6.47
2022-08-19T12:21:51.325Z,6.95
2022-08-19T12:24:23.863Z,6.88
2022-08-19T12:26:52.841Z,5.75
2022-08-19T12:29:24.030Z,6.93
2022-08-19T12:31:51.174Z,5.68
2022-08-19T12:34:26.793Z,6.40
2022-08-19T12:36:54.465Z,6.20
2022-08-19T12:39:20.957Z,5.65
2022-08-19T12:41:53.975Z,5.47
2022-08-19T12:44:20.901Z,5.80
2022-08-19T12:46:58.653Z,5.65
2022-08-19T12:49:52.618Z,4.68
2022-08-19T12:52:22.869Z,7.15
2022-08-19T12:54:53.765Z,4.82
2022-08-19T12:57:22.246Z,6.57
2022-08-19T12:59:56.881Z,5.85
2022-08-19T13:02:24.846Z,7.53
2022-08-19T13:04:51.348Z,4.38
2022-08-19T13:07:17.867Z,5.20
2022-08-19T13:09:49.105Z,4.68
2022-08-19T13:12:15.678Z,6.93
2022-08-19T13:14:42.625Z,5.57
2022-08-19T13:17:09.545Z,4.43
2022-08-19T13:19:42.650Z,4.07
2022-08-19T13:22:13.255Z,3.90
2022-08-19T13:24:47.059Z,4.43
2022-08-19T13:27:14.218Z,6.57
2022-08-19T13:30:05.478Z,7.07
2022-08-19T13:32:50.635Z,3.63
2022-08-19T13:35:20.082Z,3.70
2022-08-19T13:37:50.767Z,3.58
2022-08-19T13:40:19.997Z,4.82
2022-08-19T13:42:54.585Z,4.35
2022-08-19T13:45:26.100Z,3.95
2022-08-19T13:47:59.251Z,3.80
2022-08-19T13:50:32.383Z,3.08
2022-08-19T13:53:17.895Z,3.65
2022-08-19T13:55:47.144Z,3.22
2022-08-19T13:58:17.467Z,5.20
2022-08-19T14:00:46.070Z,3.47
2022-08-19T14:03:23.488Z,5.22
2022-08-19T14:05:50.002Z,2.78
2022-08-19T14:08:16.946Z,3.35
2022-08-19T14:10:45.695Z,3.88
2022-08-19T14:13:17.851Z,4.88
2022-08-19T14:15:44.860Z,5.55
2022-08-19T14:18:11.837Z,3.55
2022-08-19T14:20:41.172Z,4.22
2022-08-19T14:23:12.028Z,5.63
2022-08-19T14:25:38.899Z,5.88
2022-08-19T14:28:05.527Z,4.28
2022-08-19T14:30:38.598Z,3.97
2022-08-19T14:33:09.781Z,3.90
2022-08-19T14:35:38.244Z,2.47
2022-08-19T14:38:05.904Z,6.90
2022-08-19T14:40:40.254Z,2.40
2022-08-19T14:43:06.724Z,1.23
2022-08-19T14:45:36.696Z,1.77
2022-08-19T14:48:18.820Z,3.50
2022-08-19T14:50:49.467Z,6.05
2022-08-19T14:53:17.009Z,3.38
2022-08-19T14:55:44.610Z,3.35
2022-08-19T14:58:29.639Z,4.07
2022-08-19T15:01:02.407Z,3.85
2022-08-19T15:03:30.022Z,4.30
2022-08-19T15:05:58.817Z,6.05
2022-08-19T15:08:25.904Z,4.10
2022-08-19T15:10:53.075Z,3.78
2022-08-19T15:13:19.613Z,3.75
2022-08-19T15:15:48.315Z,3.65
2022-08-19T15:18:15.103Z,2.83
2022-08-19T15:20:42.089Z,1.98
2022-08-19T15:23:08.809Z,5.10
2022-08-19T15:25:35.406Z,2.42
2022-08-19T15:28:02.073Z,3.72
2022-08-19T15:30:31.537Z,3.15
2022-08-19T15:32:59.051Z,4.65
2022-08-19T15:35:30.961Z,1.80
2022-08-19T15:37:57.616Z,4.20
2022-08-19T15:40:27.120Z,2.53
2022-08-19T15:42:55.319Z,5.03
2022-08-19T15:45:32.756Z,2.35
2022-08-19T15:48:07.453Z,2.70
2022-08-19T15:50:36.431Z,2.75
2022-08-19T15:53:07.324Z,2.50
2022-08-19T15:55:40.731Z,2.83
2022-08-19T15:58:31.116Z,2.13
2022-08-19T16:01:20.907Z,2.53
2022-08-19T16:04:15.642Z,2.30
2022-08-19T16:06:52.485Z,2.72
2022-08-19T16:09:27.262Z,3.92
2022-08-19T16:11:56.853Z,2.55
2022-08-19T16:14:26.239Z,2.75
2022-08-19T16:16:54.024Z,1.95
2022-08-19T16:19:21.724Z,3.92
2022-08-19T16:21:53.525Z,1.80
2022-08-19T16:24:24.602Z,2.72
2022-08-19T16:26:52.742Z,2.00
2022-08-19T16:29:33.367Z,2.63
2022-08-19T16:32:01.244Z,4.25
2022-08-19T16:34:30.652Z,4.68
2022-08-19T16:36:59.317Z,3.78
2022-08-19T16:39:25.831Z,1.70
2022-08-19T16:41:52.317Z,2.78
2022-08-19T16:44:20.671Z,3.80
2022-08-19T16:46:59.152Z,2.28
2022-08-19T16:49:52.491Z,1.40
2022-08-19T16:52:19.786Z,2.90
2022-08-19T16:54:46.991Z,3.17
2022-08-19T16:57:13.711Z,3.67
2022-08-19T16:59:48.104Z,1.98
2022-08-19T17:02:16.918Z,2.97
2022-08-19T17:04:43.387Z,2.55
2022-08-19T17:07:15.972Z,2.67
2022-08-19T17:09:42.490Z,3.88
2022-08-19T17:12:11.818Z,1.70
2022-08-19T17:14:41.608Z,3.85
2022-08-19T17:17:12.719Z,2.53
2022-08-19T17:19:45.951Z,1.73
2022-08-19T17:22:13.048Z,1.40
2022-08-19T17:24:40.679Z,1.48
2022-08-19T17:27:07.861Z,2.05
2022-08-19T17:29:36.570Z,1.88
2022-08-19T17:32:05.826Z,2.38
2022-08-19T17:34:32.329Z,3.42
2022-08-19T17:36:59.299Z,1.35
2022-08-19T17:39:25.808Z,2.90
2022-08-19T17:41:53.189Z,3.17
2022-08-19T17:44:19.696Z,1.98
2022-08-19T17:46:46.792Z,2.78
2022-08-19T17:49:13.665Z,2.40
2022-08-19T17:51:45.459Z,3.65
2022-08-19T17:54:15.389Z,1.80
2022-08-19T17:56:42.810Z,1.60
2022-08-19T17:59:13.767Z,2.13
2022-08-19T18:01:53.156Z,2.05
2022-08-19T18:04:22.891Z,2.55
2022-08-19T18:06:53.169Z,1.98
2022-08-19T18:09:25.212Z,3.45
2022-08-19T18:11:53.656Z,4.00
2022-08-19T18:14:32.163Z,1.52
2022-08-19T18:17:02.167Z,1.63
2022-08-19T18:19:34.210Z,2.05
2022-08-19T18:22:08.526Z,3.08
2022-08-19T18:24:38.681Z,2.78
2022-08-19T18:27:05.134Z,2.95
2022-08-19T18:29:34.016Z,2.17
2022-08-19T18:32:00.485Z,2.10
2022-08-19T18:34:27.056Z,1.80
2022-08-19T18:36:54.230Z,1.75
2022-08-19T18:39:39.194Z,3.22
2022-08-19T18:42:33.474Z,3.00
2022-08-19T18:45:18.576Z,1.13
2022-08-19T18:48:03.442Z,3.00
2022-08-19T18:50:29.902Z,1.05
2022-08-19T18:52:56.360Z,1.83
2022-08-19T18:55:23.530Z,2.22
2022-08-19T18:57:51.421Z,2.42
2022-08-19T19:00:19.304Z,4.07
2022-08-19T19:02:46.427Z,2.50
2022-08-19T19:05:14.451Z,2.20
2022-08-19T19:07:41.780Z,2.17
2022-08-19T19:10:09.062Z,4.72
2022-08-19T19:12:36.804Z,4.68
2022-08-19T19:15:06.017Z,2.40
2022-08-19T19:17:32.786Z,4.00
2022-08-19T19:19:59.584Z,1.55
2022-08-19T19:22:26.426Z,3.75
2022-08-19T19:24:54.378Z,1.38
2022-08-19T19:27:21.622Z,4.30
2022-08-19T19:29:52.008Z,2.20
2022-08-19T19:32:26.352Z,2.85
2022-08-19T19:34:53.049Z,4.78
2022-08-19T19:37:19.929Z,2.75
2022-08-19T19:39:48.057Z,2.75
2022-08-19T19:42:20.228Z,2.30
2022-08-19T19:44:49.295Z,2.70
2022-08-19T19:47:16.053Z,5.38
2022-08-19T19:50:03.888Z,2.55
2022-08-19T19:52:29.597Z,3.70
2022-08-19T19:54:56.869Z,1.90
2022-08-19T19:57:23.726Z,3.85
2022-08-19T19:59:51.889Z,3.45
2022-08-19T20:02:18.544Z,3.22
2022-08-19T20:04:45.432Z,3.55
2022-08-19T20:07:11.915Z,3.75
2022-08-19T20:09:58.364Z,3.60
2022-08-19T20:12:24.825Z,4.22
2022-08-19T20:14:51.288Z,3.53
2022-08-19T20:17:20.298Z,5.75
2022-08-19T20:19:47.700Z,2.15
2022-08-19T20:22:14.405Z,4.80
2022-08-19T20:24:42.489Z,4.68
2022-08-19T20:27:10.759Z,2.13
2022-08-19T20:29:41.385Z,3.90
2022-08-19T20:32:13.421Z,4.90
2022-08-19T20:34:40.750Z,4.03
2022-08-19T20:37:16.656Z,2.30
2022-08-19T20:39:47.430Z,2.85
2022-08-19T20:42:19.243Z,4.80
2022-08-19T20:44:49.618Z,3.00
2022-08-19T20:47:18.670Z,2.30
2022-08-19T20:49:45.255Z,3.67
2022-08-19T20:52:14.152Z,3.47
2022-08-19T20:54:41.751Z,3.65
2022-08-19T20:57:08.738Z,3.92
2022-08-19T20:59:37.626Z,3.88
2022-08-19T21:02:04.149Z,4.28
2022-08-19T21:04:35.438Z,3.53
2022-08-19T21:07:02.243Z,2.78
2022-08-19T21:09:29.227Z,3.72
2022-08-19T21:11:58.941Z,3.28
2022-08-19T21:14:33.611Z,3.58
2022-08-19T21:17:00.274Z,5.05
2022-08-19T21:19:27.182Z,2.55
2022-08-19T21:21:55.772Z,4.00
2022-08-19T21:24:31.576Z,2.45
2022-08-19T21:26:58.390Z,2.35
2022-08-19T21:29:24.922Z,2.30
2022-08-19T21:31:56.774Z,2.10
2022-08-19T21:34:23.258Z,1.70
2022-08-19T21:36:49.830Z,4.30
2022-08-19T21:39:21.439Z,1.52
2022-08-19T21:41:48.011Z,2.67
2022-08-19T21:44:22.808Z,2.10
2022-08-19T21:46:51.930Z,3.00
2022-08-19T21:49:23.553Z,3.38
2022-08-19T21:51:51.240Z,1.70
2022-08-19T21:54:29.182Z,2.85
2022-08-19T21:57:10.405Z,1.92
2022-08-19T21:59:43.910Z,1.60
2022-08-19T22:02:20.363Z,2.25
2022-08-19T22:04:49.126Z,1.83
2022-08-19T22:07:23.109Z,3.10
2022-08-19T22:09:50.812Z,3.53
2022-08-19T22:12:39.348Z,2.28
2022-08-19T22:15:19.183Z,2.92
2022-08-19T22:17:49.366Z,3.65
2022-08-19T22:20:19.899Z,2.28
2022-08-19T22:22:49.413Z,2.72
2022-08-19T22:25:50.024Z,1.75
2022-08-19T22:28:27.777Z,2.50
2022-08-19T22:30:56.996Z,1.52
2022-08-19T22:33:26.100Z,1.60
2022-08-19T22:35:53.353Z,2.00
2022-08-19T22:38:22.265Z,2.60
2022-08-19T22:40:54.751Z,1.80
2022-08-19T22:43:24.628Z,1.88
2022-08-19T22:45:57.344Z,2.22
2022-08-19T22:48:26.436Z,3.08
2022-08-19T22:51:19.980Z,3.40
2022-08-19T22:53:47.207Z,2.70
2022-08-19T22:56:20.501Z,2.78
2022-08-19T22:58:50.105Z,3.47
2022-08-19T23:01:27.433Z,1.65
2022-08-19T23:03:59.865Z,2.97
2022-08-19T23:06:33.525Z,2.05
2022-08-19T23:09:08.922Z,3.97
2022-08-19T23:11:41.586Z,4.20
2022-08-19T23:14:12.624Z,1.67
2022-08-19T23:16:39.544Z,2.65
2022-08-19T23:19:11.216Z,2.97
2022-08-19T23:21:41.944Z,3.28
2022-08-19T23:24:11.460Z,1.75
2022-08-19T23:27:05.643Z,2.75
2022-08-19T23:29:53.319Z,3.53
2022-08-19T23:32:23.376Z,2.00
2022-08-19T23:34:52.108Z,3.33
2022-08-19T23:37:18.723Z,3.45
2022-08-19T23:39:48.456Z,3.13
2022-08-19T23:42:15.026Z,3.00
2022-08-19T23:44:51.219Z,3.72
2022-08-19T23:47:32.154Z,2.55
2022-08-19T23:50:03.441Z,1.92
2022-08-19T23:52:33.767Z,3.33
2022-08-19T23:55:09.533Z,1.67
2022-08-19T23:57:45.160Z,2.92
